sensor_id;sensor_type;location;lat;lon;timestamp;P1;durP1;ratioP1;P2;durP2;ratioP2
11911;SDS011;6016;41.928;25.556;2023-07-31T00:01:13;1.55;;;1.30;;
11911;SDS011;6016;41.928;25.556;2023-07-31T00:03:39;4.25;;;1.45;;
11911;SDS011;6016;41.928;25.556;2023-07-31T00:06:06;1.40;;;1.30;;
11911;SDS011;6016;41.928;25.556;2023-07-31T00:08:33;3.35;;;1.27;;
11911;SDS011;6016;41.928;25.556;2023-07-31T00:11:00;3.10;;;1.50;;
11911;SDS011;6016;41.928;25.556;2023-07-31T00:13:27;4.25;;;1.40;;
11911;SDS011;6016;41.928;25.556;2023-07-31T00:15:55;3.20;;;1.50;;
11911;SDS011;6016;41.928;25.556;2023-07-31T00:18:22;4.00;;;1.40;;
11911;SDS011;6016;41.928;25.556;2023-07-31T00:20:48;3.33;;;1.52;;
11911;SDS011;6016;41.928;25.556;2023-07-31T00:23:15;4.10;;;1.40;;
11911;SDS011;6016;41.928;25.556;2023-07-31T00:25:42;1.60;;;1.50;;
11911;SDS011;6016;41.928;25.556;2023-07-31T00:28:09;1.77;;;1.20;;
11911;SDS011;6016;41.928;25.556;2023-07-31T00:30:36;3.22;;;1.38;;
11911;SDS011;6016;41.928;25.556;2023-07-31T00:33:05;3.88;;;1.35;;
11911;SDS011;6016;41.928;25.556;2023-07-31T00:35:32;1.30;;;1.20;;
11911;SDS011;6016;41.928;25.556;2023-07-31T00:37:59;2.78;;;1.50;;
11911;SDS011;6016;41.928;25.556;2023-07-31T00:40:25;1.73;;;1.45;;
11911;SDS011;6016;41.928;25.556;2023-07-31T00:42:52;1.70;;;1.40;;
11911;SDS011;6016;41.928;25.556;2023-07-31T00:45:19;3.25;;;1.27;;
11911;SDS011;6016;41.928;25.556;2023-07-31T00:47:48;2.20;;;1.40;;
11911;SDS011;6016;41.928;25.556;2023-07-31T00:50:16;3.97;;;1.42;;
11911;SDS011;6016;41.928;25.556;2023-07-31T00:52:43;2.00;;;1.38;;
11911;SDS011;6016;41.928;25.556;2023-07-31T00:55:10;2.58;;;1.58;;
11911;SDS011;6016;41.928;25.556;2023-07-31T00:57:37;2.35;;;1.10;;
11911;SDS011;6016;41.928;25.556;2023-07-31T01:00:07;2.03;;;1.30;;
11911;SDS011;6016;41.928;25.556;2023-07-31T01:02:35;3.75;;;1.50;;
11911;SDS011;6016;41.928;25.556;2023-07-31T01:05:02;2.40;;;1.50;;
11911;SDS011;6016;41.928;25.556;2023-07-31T01:07:34;2.25;;;1.50;;
11911;SDS011;6016;41.928;25.556;2023-07-31T01:10:07;1.63;;;1.33;;
11911;SDS011;6016;41.928;25.556;2023-07-31T01:12:37;4.43;;;1.30;;
11911;SDS011;6016;41.928;25.556;2023-07-31T01:15:05;1.48;;;1.38;;
11911;SDS011;6016;41.928;25.556;2023-07-31T01:17:36;2.50;;;1.47;;
11911;SDS011;6016;41.928;25.556;2023-07-31T01:20:03;4.38;;;1.40;;
11911;SDS011;6016;41.928;25.556;2023-07-31T01:22:39;2.72;;;1.42;;
11911;SDS011;6016;41.928;25.556;2023-07-31T01:25:29;2.85;;;1.50;;
11911;SDS011;6016;41.928;25.556;2023-07-31T01:28:14;1.35;;;1.25;;
11911;SDS011;6016;41.928;25.556;2023-07-31T01:30:47;3.13;;;1.58;;
11911;SDS011;6016;41.928;25.556;2023-07-31T01:33:15;3.13;;;1.30;;
11911;SDS011;6016;41.928;25.556;2023-07-31T01:35:43;3.53;;;1.50;;
11911;SDS011;6016;41.928;25.556;2023-07-31T01:38:13;2.80;;;1.40;;
11911;SDS011;6016;41.928;25.556;2023-07-31T01:40:41;1.80;;;1.35;;
11911;SDS011;6016;41.928;25.556;2023-07-31T01:43:08;4.03;;;1.20;;
11911;SDS011;6016;41.928;25.556;2023-07-31T01:45:36;3.38;;;1.42;;
11911;SDS011;6016;41.928;25.556;2023-07-31T01:48:03;2.83;;;1.30;;
11911;SDS011;6016;41.928;25.556;2023-07-31T01:50:30;1.58;;;1.30;;
11911;SDS011;6016;41.928;25.556;2023-07-31T01:52:57;3.30;;;1.38;;
11911;SDS011;6016;41.928;25.556;2023-07-31T01:55:24;3.13;;;1.30;;
11911;SDS011;6016;41.928;25.556;2023-07-31T01:57:51;3.20;;;1.50;;
11911;SDS011;6016;41.928;25.556;2023-07-31T02:00:18;2.33;;;1.63;;
11911;SDS011;6016;41.928;25.556;2023-07-31T02:02:46;3.38;;;1.27;;
11911;SDS011;6016;41.928;25.556;2023-07-31T02:05:13;2.10;;;1.33;;
11911;SDS011;6016;41.928;25.556;2023-07-31T02:07:40;6.25;;;1.40;;
11911;SDS011;6016;41.928;25.556;2023-07-31T02:10:07;2.72;;;1.70;;
11911;SDS011;6016;41.928;25.556;2023-07-31T02:12:34;6.00;;;1.67;;
11911;SDS011;6016;41.928;25.556;2023-07-31T02:15:01;4.45;;;1.45;;
11911;SDS011;6016;41.928;25.556;2023-07-31T02:17:28;1.98;;;1.25;;
11911;SDS011;6016;41.928;25.556;2023-07-31T02:19:56;3.25;;;1.40;;
11911;SDS011;6016;41.928;25.556;2023-07-31T02:22:23;4.38;;;1.48;;
11911;SDS011;6016;41.928;25.556;2023-07-31T02:24:49;2.80;;;1.42;;
11911;SDS011;6016;41.928;25.556;2023-07-31T02:27:16;2.25;;;1.50;;
11911;SDS011;6016;41.928;25.556;2023-07-31T02:29:43;1.50;;;1.40;;
11911;SDS011;6016;41.928;25.556;2023-07-31T02:32:10;3.30;;;1.45;;
11911;SDS011;6016;41.928;25.556;2023-07-31T02:34:37;1.75;;;1.23;;
11911;SDS011;6016;41.928;25.556;2023-07-31T02:37:05;3.08;;;1.65;;
11911;SDS011;6016;41.928;25.556;2023-07-31T02:39:32;3.78;;;1.48;;
11911;SDS011;6016;41.928;25.556;2023-07-31T02:41:59;2.70;;;1.45;;
11911;SDS011;6016;41.928;25.556;2023-07-31T02:44:26;1.52;;;1.23;;
11911;SDS011;6016;41.928;25.556;2023-07-31T02:46:53;2.10;;;1.40;;
11911;SDS011;6016;41.928;25.556;2023-07-31T02:49:20;2.15;;;1.45;;
11911;SDS011;6016;41.928;25.556;2023-07-31T02:51:47;2.20;;;1.23;;
11911;SDS011;6016;41.928;25.556;2023-07-31T02:54:15;3.20;;;1.40;;
11911;SDS011;6016;41.928;25.556;2023-07-31T02:56:42;2.92;;;1.35;;
11911;SDS011;6016;41.928;25.556;2023-07-31T02:59:08;1.88;;;1.50;;
11911;SDS011;6016;41.928;25.556;2023-07-31T03:01:35;2.63;;;1.40;;
11911;SDS011;6016;41.928;25.556;2023-07-31T03:04:02;2.47;;;1.38;;
11911;SDS011;6016;41.928;25.556;2023-07-31T03:06:29;2.83;;;1.58;;
11911;SDS011;6016;41.928;25.556;2023-07-31T03:08:56;3.08;;;1.55;;
11911;SDS011;6016;41.928;25.556;2023-07-31T03:11:24;3.90;;;1.65;;
11911;SDS011;6016;41.928;25.556;2023-07-31T03:13:51;6.05;;;1.60;;
11911;SDS011;6016;41.928;25.556;2023-07-31T03:16:19;7.13;;;1.80;;
11911;SDS011;6016;41.928;25.556;2023-07-31T03:18:45;2.22;;;1.80;;
11911;SDS011;6016;41.928;25.556;2023-07-31T03:21:12;3.85;;;1.60;;
11911;SDS011;6016;41.928;25.556;2023-07-31T03:23:39;2.65;;;1.40;;
11911;SDS011;6016;41.928;25.556;2023-07-31T03:26:06;2.10;;;1.48;;
11911;SDS011;6016;41.928;25.556;2023-07-31T03:28:35;3.17;;;1.80;;
11911;SDS011;6016;41.928;25.556;2023-07-31T03:31:02;4.15;;;1.73;;
11911;SDS011;6016;41.928;25.556;2023-07-31T03:33:29;2.58;;;1.52;;
11911;SDS011;6016;41.928;25.556;2023-07-31T03:35:56;3.22;;;1.80;;
11911;SDS011;6016;41.928;25.556;2023-07-31T03:38:23;5.72;;;1.50;;
11911;SDS011;6016;41.928;25.556;2023-07-31T03:40:50;3.10;;;1.88;;
11911;SDS011;6016;41.928;25.556;2023-07-31T03:43:15;3.75;;;1.80;;
11911;SDS011;6016;41.928;25.556;2023-07-31T03:45:44;4.95;;;1.73;;
11911;SDS011;6016;41.928;25.556;2023-07-31T03:48:10;2.47;;;1.80;;
11911;SDS011;6016;41.928;25.556;2023-07-31T03:50:37;2.70;;;1.80;;
11911;SDS011;6016;41.928;25.556;2023-07-31T03:53:04;3.08;;;1.70;;
11911;SDS011;6016;41.928;25.556;2023-07-31T03:55:31;3.08;;;1.60;;
11911;SDS011;6016;41.928;25.556;2023-07-31T03:57:58;2.25;;;1.55;;
11911;SDS011;6016;41.928;25.556;2023-07-31T04:00:25;4.72;;;1.90;;
11911;SDS011;6016;41.928;25.556;2023-07-31T04:02:54;4.38;;;2.00;;
11911;SDS011;6016;41.928;25.556;2023-07-31T04:05:20;3.40;;;2.03;;
11911;SDS011;6016;41.928;25.556;2023-07-31T04:07:47;2.58;;;1.90;;
11911;SDS011;6016;41.928;25.556;2023-07-31T04:10:14;4.78;;;1.60;;
11911;SDS011;6016;41.928;25.556;2023-07-31T04:12:41;6.72;;;2.15;;
11911;SDS011;6016;41.928;25.556;2023-07-31T04:15:08;4.53;;;2.35;;
11911;SDS011;6016;41.928;25.556;2023-07-31T04:17:35;2.25;;;1.70;;
11911;SDS011;6016;41.928;25.556;2023-07-31T04:20:04;3.38;;;2.17;;
11911;SDS011;6016;41.928;25.556;2023-07-31T04:22:32;3.00;;;1.92;;
11911;SDS011;6016;41.928;25.556;2023-07-31T04:24:58;5.57;;;1.90;;
11911;SDS011;6016;41.928;25.556;2023-07-31T04:27:25;2.97;;;2.00;;
11911;SDS011;6016;41.928;25.556;2023-07-31T04:29:52;7.97;;;1.92;;
11911;SDS011;6016;41.928;25.556;2023-07-31T04:32:19;8.88;;;4.63;;
11911;SDS011;6016;41.928;25.556;2023-07-31T04:34:46;3.92;;;2.30;;
11911;SDS011;6016;41.928;25.556;2023-07-31T04:37:14;4.95;;;1.60;;
11911;SDS011;6016;41.928;25.556;2023-07-31T04:39:41;3.65;;;1.70;;
11911;SDS011;6016;41.928;25.556;2023-07-31T04:42:08;4.63;;;1.80;;
11911;SDS011;6016;41.928;25.556;2023-07-31T04:44:35;4.57;;;1.80;;
11911;SDS011;6016;41.928;25.556;2023-07-31T04:47:02;4.10;;;1.75;;
11911;SDS011;6016;41.928;25.556;2023-07-31T04:49:29;3.72;;;1.90;;
11911;SDS011;6016;41.928;25.556;2023-07-31T04:51:55;3.97;;;1.80;;
11911;SDS011;6016;41.928;25.556;2023-07-31T04:54:24;3.47;;;1.70;;
11911;SDS011;6016;41.928;25.556;2023-07-31T04:56:50;4.18;;;2.45;;
11911;SDS011;6016;41.928;25.556;2023-07-31T04:59:18;3.05;;;2.00;;
11911;SDS011;6016;41.928;25.556;2023-07-31T05:01:45;5.25;;;2.08;;
11911;SDS011;6016;41.928;25.556;2023-07-31T05:04:12;6.53;;;2.40;;
11911;SDS011;6016;41.928;25.556;2023-07-31T05:06:39;3.67;;;2.30;;
11911;SDS011;6016;41.928;25.556;2023-07-31T05:09:06;3.38;;;2.10;;
11911;SDS011;6016;41.928;25.556;2023-07-31T05:11:35;2.92;;;1.90;;
11911;SDS011;6016;41.928;25.556;2023-07-31T05:14:02;3.92;;;2.05;;
11911;SDS011;6016;41.928;25.556;2023-07-31T05:16:29;4.53;;;1.88;;
11911;SDS011;6016;41.928;25.556;2023-07-31T05:18:56;3.33;;;1.90;;
11911;SDS011;6016;41.928;25.556;2023-07-31T05:21:23;11.27;;;2.33;;
11911;SDS011;6016;41.928;25.556;2023-07-31T05:23:50;14.95;;;2.85;;
11911;SDS011;6016;41.928;25.556;2023-07-31T05:26:17;9.20;;;2.13;;
11911;SDS011;6016;41.928;25.556;2023-07-31T05:28:45;13.27;;;2.50;;
11911;SDS011;6016;41.928;25.556;2023-07-31T05:31:12;4.68;;;1.90;;
11911;SDS011;6016;41.928;25.556;2023-07-31T05:33:38;9.95;;;2.58;;
11911;SDS011;6016;41.928;25.556;2023-07-31T05:36:05;11.73;;;3.00;;
11911;SDS011;6016;41.928;25.556;2023-07-31T05:38:32;8.70;;;3.03;;
11911;SDS011;6016;41.928;25.556;2023-07-31T05:40:59;8.60;;;3.25;;
11911;SDS011;6016;41.928;25.556;2023-07-31T05:43:26;4.85;;;2.95;;
11911;SDS011;6016;41.928;25.556;2023-07-31T05:45:54;7.88;;;2.78;;
11911;SDS011;6016;41.928;25.556;2023-07-31T05:48:21;9.20;;;5.68;;
11911;SDS011;6016;41.928;25.556;2023-07-31T05:50:47;7.80;;;3.63;;
11911;SDS011;6016;41.928;25.556;2023-07-31T05:53:14;10.68;;;3.38;;
11911;SDS011;6016;41.928;25.556;2023-07-31T05:55:41;7.57;;;3.70;;
11911;SDS011;6016;41.928;25.556;2023-07-31T05:58:08;7.47;;;3.72;;
11911;SDS011;6016;41.928;25.556;2023-07-31T06:00:34;7.60;;;3.90;;
11911;SDS011;6016;41.928;25.556;2023-07-31T06:03:03;6.47;;;3.30;;
11911;SDS011;6016;41.928;25.556;2023-07-31T06:05:30;5.35;;;3.60;;
11911;SDS011;6016;41.928;25.556;2023-07-31T06:07:56;6.82;;;3.50;;
11911;SDS011;6016;41.928;25.556;2023-07-31T06:10:24;6.40;;;3.95;;
11911;SDS011;6016;41.928;25.556;2023-07-31T06:12:51;7.78;;;3.67;;
11911;SDS011;6016;41.928;25.556;2023-07-31T06:15:17;11.43;;;4.32;;
11911;SDS011;6016;41.928;25.556;2023-07-31T06:17:45;9.57;;;4.20;;
11911;SDS011;6016;41.928;25.556;2023-07-31T06:20:13;10.52;;;4.13;;
11911;SDS011;6016;41.928;25.556;2023-07-31T06:22:40;9.57;;;4.90;;
11911;SDS011;6016;41.928;25.556;2023-07-31T06:25:07;7.15;;;3.90;;
11911;SDS011;6016;41.928;25.556;2023-07-31T06:27:34;10.25;;;4.78;;
11911;SDS011;6016;41.928;25.556;2023-07-31T06:30:01;7.50;;;4.10;;
11911;SDS011;6016;41.928;25.556;2023-07-31T06:32:28;6.53;;;3.83;;
11911;SDS011;6016;41.928;25.556;2023-07-31T06:34:55;9.57;;;4.95;;
11911;SDS011;6016;41.928;25.556;2023-07-31T06:37:23;8.02;;;4.30;;
11911;SDS011;6016;41.928;25.556;2023-07-31T06:39:50;9.15;;;4.43;;
11911;SDS011;6016;41.928;25.556;2023-07-31T06:42:16;8.27;;;4.63;;
11911;SDS011;6016;41.928;25.556;2023-07-31T06:44:43;7.80;;;4.55;;
11911;SDS011;6016;41.928;25.556;2023-07-31T06:47:10;6.68;;;4.40;;
11911;SDS011;6016;41.928;25.556;2023-07-31T06:49:37;6.65;;;4.10;;
11911;SDS011;6016;41.928;25.556;2023-07-31T06:52:04;7.45;;;4.72;;
11911;SDS011;6016;41.928;25.556;2023-07-31T06:54:32;6.63;;;4.70;;
11911;SDS011;6016;41.928;25.556;2023-07-31T06:56:59;10.13;;;5.07;;
11911;SDS011;6016;41.928;25.556;2023-07-31T06:59:26;7.10;;;4.95;;
11911;SDS011;6016;41.928;25.556;2023-07-31T07:01:52;5.43;;;4.30;;
11911;SDS011;6016;41.928;25.556;2023-07-31T07:04:19;5.47;;;4.50;;
11911;SDS011;6016;41.928;25.556;2023-07-31T07:06:46;6.40;;;4.30;;
11911;SDS011;6016;41.928;25.556;2023-07-31T07:09:13;7.25;;;4.78;;
11911;SDS011;6016;41.928;25.556;2023-07-31T07:11:41;8.02;;;4.18;;
11911;SDS011;6016;41.928;25.556;2023-07-31T07:14:08;6.43;;;4.45;;
11911;SDS011;6016;41.928;25.556;2023-07-31T07:16:35;7.10;;;4.53;;
11911;SDS011;6016;41.928;25.556;2023-07-31T07:19:02;8.32;;;4.63;;
11911;SDS011;6016;41.928;25.556;2023-07-31T07:21:29;8.52;;;4.78;;
11911;SDS011;6016;41.928;25.556;2023-07-31T07:23:55;6.35;;;4.53;;
11911;SDS011;6016;41.928;25.556;2023-07-31T07:26:22;6.40;;;4.22;;
11911;SDS011;6016;41.928;25.556;2023-07-31T07:28:50;5.25;;;3.80;;
11911;SDS011;6016;41.928;25.556;2023-07-31T07:31:17;6.93;;;4.00;;
11911;SDS011;6016;41.928;25.556;2023-07-31T07:33:44;5.63;;;3.78;;
11911;SDS011;6016;41.928;25.556;2023-07-31T07:36:11;4.93;;;3.55;;
11911;SDS011;6016;41.928;25.556;2023-07-31T07:38:38;6.65;;;4.20;;
11911;SDS011;6016;41.928;25.556;2023-07-31T07:41:06;6.05;;;3.72;;
11911;SDS011;6016;41.928;25.556;2023-07-31T07:43:32;5.40;;;4.20;;
11911;SDS011;6016;41.928;25.556;2023-07-31T07:46:01;5.97;;;3.83;;
11911;SDS011;6016;41.928;25.556;2023-07-31T07:48:27;6.68;;;4.10;;
11911;SDS011;6016;41.928;25.556;2023-07-31T07:50:54;7.53;;;4.05;;
11911;SDS011;6016;41.928;25.556;2023-07-31T07:53:21;5.38;;;3.83;;
11911;SDS011;6016;41.928;25.556;2023-07-31T07:55:48;6.10;;;4.50;;
11911;SDS011;6016;41.928;25.556;2023-07-31T07:58:14;4.50;;;3.78;;
11911;SDS011;6016;41.928;25.556;2023-07-31T08:00:41;5.57;;;3.88;;
11911;SDS011;6016;41.928;25.556;2023-07-31T08:03:09;6.43;;;5.03;;
11911;SDS011;6016;41.928;25.556;2023-07-31T08:05:36;7.47;;;5.90;;
11911;SDS011;6016;41.928;25.556;2023-07-31T08:08:03;10.68;;;6.80;;
11911;SDS011;6016;41.928;25.556;2023-07-31T08:10:30;6.60;;;5.22;;
11911;SDS011;6016;41.928;25.556;2023-07-31T08:12:57;6.40;;;4.85;;
11911;SDS011;6016;41.928;25.556;2023-07-31T08:15:23;6.28;;;5.00;;
11911;SDS011;6016;41.928;25.556;2023-07-31T08:17:50;8.75;;;5.57;;
11911;SDS011;6016;41.928;25.556;2023-07-31T08:20:19;8.13;;;5.60;;
11911;SDS011;6016;41.928;25.556;2023-07-31T08:22:45;8.50;;;5.88;;
11911;SDS011;6016;41.928;25.556;2023-07-31T08:25:12;5.88;;;4.78;;
11911;SDS011;6016;41.928;25.556;2023-07-31T08:27:42;6.55;;;5.40;;
11911;SDS011;6016;41.928;25.556;2023-07-31T08:30:10;7.93;;;5.28;;
11911;SDS011;6016;41.928;25.556;2023-07-31T08:32:37;8.20;;;4.95;;
11911;SDS011;6016;41.928;25.556;2023-07-31T08:35:04;5.97;;;4.80;;
11911;SDS011;6016;41.928;25.556;2023-07-31T08:37:33;6.95;;;5.03;;
11911;SDS011;6016;41.928;25.556;2023-07-31T08:40:00;6.28;;;4.25;;
11911;SDS011;6016;41.928;25.556;2023-07-31T08:42:27;7.57;;;4.78;;
11911;SDS011;6016;41.928;25.556;2023-07-31T08:44:54;6.03;;;4.53;;
11911;SDS011;6016;41.928;25.556;2023-07-31T08:47:22;6.45;;;4.50;;
11911;SDS011;6016;41.928;25.556;2023-07-31T08:49:50;7.15;;;5.63;;
11911;SDS011;6016;41.928;25.556;2023-07-31T08:52:19;5.18;;;4.57;;
11911;SDS011;6016;41.928;25.556;2023-07-31T08:54:47;6.50;;;4.20;;
11911;SDS011;6016;41.928;25.556;2023-07-31T08:57:14;6.55;;;4.28;;
11911;SDS011;6016;41.928;25.556;2023-07-31T08:59:42;6.18;;;5.03;;
11911;SDS011;6016;41.928;25.556;2023-07-31T09:02:10;7.15;;;5.93;;
11911;SDS011;6016;41.928;25.556;2023-07-31T09:04:39;7.53;;;5.63;;
11911;SDS011;6016;41.928;25.556;2023-07-31T09:07:06;7.07;;;6.38;;
11911;SDS011;6016;41.928;25.556;2023-07-31T09:09:34;6.32;;;5.63;;
11911;SDS011;6016;41.928;25.556;2023-07-31T09:12:02;8.50;;;6.97;;
11911;SDS011;6016;41.928;25.556;2023-07-31T09:14:30;9.15;;;6.93;;
11911;SDS011;6016;41.928;25.556;2023-07-31T09:16:58;9.90;;;7.35;;
11911;SDS011;6016;41.928;25.556;2023-07-31T09:19:26;8.70;;;7.57;;
11911;SDS011;6016;41.928;25.556;2023-07-31T09:21:53;9.15;;;6.38;;
11911;SDS011;6016;41.928;25.556;2023-07-31T09:24:26;7.03;;;6.00;;
11911;SDS011;6016;41.928;25.556;2023-07-31T09:26:55;7.93;;;6.90;;
11911;SDS011;6016;41.928;25.556;2023-07-31T09:29:24;9.00;;;6.45;;
11911;SDS011;6016;41.928;25.556;2023-07-31T09:31:51;7.68;;;6.13;;
11911;SDS011;6016;41.928;25.556;2023-07-31T09:34:20;7.55;;;6.20;;
11911;SDS011;6016;41.928;25.556;2023-07-31T09:36:54;8.65;;;6.80;;
11911;SDS011;6016;41.928;25.556;2023-07-31T09:39:21;8.73;;;7.68;;
11911;SDS011;6016;41.928;25.556;2023-07-31T09:41:53;8.13;;;6.50;;
11911;SDS011;6016;41.928;25.556;2023-07-31T09:44:21;7.40;;;6.50;;
11911;SDS011;6016;41.928;25.556;2023-07-31T09:46:49;11.13;;;6.68;;
11911;SDS011;6016;41.928;25.556;2023-07-31T09:49:16;8.98;;;6.85;;
11911;SDS011;6016;41.928;25.556;2023-07-31T09:51:42;7.55;;;6.28;;
11911;SDS011;6016;41.928;25.556;2023-07-31T09:54:10;7.15;;;6.13;;
11911;SDS011;6016;41.928;25.556;2023-07-31T09:56:39;7.60;;;5.97;;
11911;SDS011;6016;41.928;25.556;2023-07-31T09:59:10;11.07;;;6.87;;
11911;SDS011;6016;41.928;25.556;2023-07-31T10:01:38;6.72;;;5.97;;
11911;SDS011;6016;41.928;25.556;2023-07-31T10:04:07;6.90;;;6.03;;
11911;SDS011;6016;41.928;25.556;2023-07-31T10:06:35;7.03;;;5.95;;
11911;SDS011;6016;41.928;25.556;2023-07-31T10:09:03;6.32;;;5.72;;
11911;SDS011;6016;41.928;25.556;2023-07-31T10:11:32;7.25;;;6.10;;
11911;SDS011;6016;41.928;25.556;2023-07-31T10:16:32;7.35;;;6.15;;
11911;SDS011;6016;41.928;25.556;2023-07-31T10:18:59;6.75;;;6.05;;
11911;SDS011;6016;41.928;25.556;2023-07-31T10:21:28;7.03;;;6.15;;
11911;SDS011;6016;41.928;25.556;2023-07-31T10:23:55;7.70;;;6.45;;
11911;SDS011;6016;41.928;25.556;2023-07-31T10:26:22;7.63;;;6.30;;
11911;SDS011;6016;41.928;25.556;2023-07-31T10:28:51;7.15;;;5.65;;
11911;SDS011;6016;41.928;25.556;2023-07-31T10:31:19;6.68;;;5.53;;
11911;SDS011;6016;41.928;25.556;2023-07-31T10:33:47;7.00;;;6.10;;
11911;SDS011;6016;41.928;25.556;2023-07-31T10:36:17;7.28;;;5.85;;
11911;SDS011;6016;41.928;25.556;2023-07-31T10:38:46;7.93;;;5.50;;
11911;SDS011;6016;41.928;25.556;2023-07-31T10:41:15;6.50;;;5.80;;
11911;SDS011;6016;41.928;25.556;2023-07-31T10:43:42;6.47;;;5.78;;
11911;SDS011;6016;41.928;25.556;2023-07-31T10:46:09;7.75;;;5.78;;
11911;SDS011;6016;41.928;25.556;2023-07-31T10:48:38;6.25;;;5.30;;
11911;SDS011;6016;41.928;25.556;2023-07-31T10:51:07;7.15;;;5.43;;
11911;SDS011;6016;41.928;25.556;2023-07-31T10:53:36;7.57;;;6.05;;
11911;SDS011;6016;41.928;25.556;2023-07-31T10:56:04;8.82;;;5.88;;
11911;SDS011;6016;41.928;25.556;2023-07-31T10:58:32;6.88;;;5.43;;
11911;SDS011;6016;41.928;25.556;2023-07-31T11:01:00;6.30;;;5.40;;
11911;SDS011;6016;41.928;25.556;2023-07-31T11:03:40;6.22;;;5.63;;
11911;SDS011;6016;41.928;25.556;2023-07-31T11:06:08;6.53;;;5.90;;
11911;SDS011;6016;41.928;25.556;2023-07-31T11:08:36;8.77;;;5.70;;
11911;SDS011;6016;41.928;25.556;2023-07-31T11:11:09;6.60;;;5.72;;
11911;SDS011;6016;41.928;25.556;2023-07-31T11:13:41;7.45;;;5.75;;
11911;SDS011;6016;41.928;25.556;2023-07-31T11:16:10;7.90;;;5.78;;
11911;SDS011;6016;41.928;25.556;2023-07-31T11:18:38;7.07;;;5.65;;
11911;SDS011;6016;41.928;25.556;2023-07-31T11:21:06;7.13;;;6.13;;
11911;SDS011;6016;41.928;25.556;2023-07-31T11:23:33;8.07;;;5.63;;
11911;SDS011;6016;41.928;25.556;2023-07-31T11:26:04;6.20;;;5.50;;
11911;SDS011;6016;41.928;25.556;2023-07-31T11:28:33;6.53;;;5.55;;
11911;SDS011;6016;41.928;25.556;2023-07-31T11:31:01;6.75;;;5.22;;
11911;SDS011;6016;41.928;25.556;2023-07-31T11:33:29;6.32;;;5.32;;
11911;SDS011;6016;41.928;25.556;2023-07-31T11:35:56;5.78;;;5.18;;
11911;SDS011;6016;41.928;25.556;2023-07-31T11:38:23;7.20;;;5.90;;
11911;SDS011;6016;41.928;25.556;2023-07-31T11:40:51;8.18;;;5.70;;
11911;SDS011;6016;41.928;25.556;2023-07-31T11:43:19;7.70;;;5.90;;
11911;SDS011;6016;41.928;25.556;2023-07-31T11:45:48;6.82;;;5.65;;
11911;SDS011;6016;41.928;25.556;2023-07-31T11:48:19;6.78;;;5.82;;
11911;SDS011;6016;41.928;25.556;2023-07-31T11:50:47;7.07;;;5.80;;
11911;SDS011;6016;41.928;25.556;2023-07-31T11:53:15;6.85;;;5.30;;
11911;SDS011;6016;41.928;25.556;2023-07-31T11:55:45;6.43;;;5.72;;
11911;SDS011;6016;41.928;25.556;2023-07-31T11:58:13;7.60;;;5.50;;
11911;SDS011;6016;41.928;25.556;2023-07-31T12:00:41;6.20;;;5.60;;
11911;SDS011;6016;41.928;25.556;2023-07-31T12:03:10;6.57;;;5.28;;
11911;SDS011;6016;41.928;25.556;2023-07-31T12:05:37;6.45;;;5.53;;
11911;SDS011;6016;41.928;25.556;2023-07-31T12:08:08;5.65;;;4.95;;
11911;SDS011;6016;41.928;25.556;2023-07-31T12:10:35;6.30;;;5.70;;
11911;SDS011;6016;41.928;25.556;2023-07-31T12:13:03;7.40;;;5.57;;
11911;SDS011;6016;41.928;25.556;2023-07-31T12:15:35;6.45;;;5.47;;
11911;SDS011;6016;41.928;25.556;2023-07-31T12:18:05;6.60;;;5.90;;
11911;SDS011;6016;41.928;25.556;2023-07-31T12:20:34;6.30;;;5.70;;
11911;SDS011;6016;41.928;25.556;2023-07-31T12:23:01;7.03;;;5.10;;
11911;SDS011;6016;41.928;25.556;2023-07-31T12:25:32;6.43;;;5.80;;
11911;SDS011;6016;41.928;25.556;2023-07-31T12:28:05;6.53;;;5.60;;
11911;SDS011;6016;41.928;25.556;2023-07-31T12:30:36;5.85;;;5.30;;
11911;SDS011;6016;41.928;25.556;2023-07-31T12:33:05;7.10;;;5.57;;
11911;SDS011;6016;41.928;25.556;2023-07-31T12:35:38;6.80;;;5.63;;
11911;SDS011;6016;41.928;25.556;2023-07-31T12:38:07;6.80;;;5.53;;
11911;SDS011;6016;41.928;25.556;2023-07-31T12:40:36;7.95;;;5.78;;
11911;SDS011;6016;41.928;25.556;2023-07-31T12:43:03;7.20;;;5.82;;
11911;SDS011;6016;41.928;25.556;2023-07-31T12:45:30;7.40;;;6.15;;
11911;SDS011;6016;41.928;25.556;2023-07-31T12:47:57;6.80;;;6.10;;
11911;SDS011;6016;41.928;25.556;2023-07-31T12:50:24;8.52;;;7.07;;
11911;SDS011;6016;41.928;25.556;2023-07-31T12:52:53;8.68;;;7.55;;
11911;SDS011;6016;41.928;25.556;2023-07-31T12:55:20;13.35;;;10.15;;
11911;SDS011;6016;41.928;25.556;2023-07-31T12:57:48;8.85;;;7.63;;
11911;SDS011;6016;41.928;25.556;2023-07-31T13:00:15;8.85;;;7.28;;
11911;SDS011;6016;41.928;25.556;2023-07-31T13:02:41;8.27;;;7.35;;
11911;SDS011;6016;41.928;25.556;2023-07-31T13:05:08;7.90;;;7.10;;
11911;SDS011;6016;41.928;25.556;2023-07-31T13:07:35;9.32;;;8.13;;
11911;SDS011;6016;41.928;25.556;2023-07-31T13:10:05;25.15;;;18.33;;
11911;SDS011;6016;41.928;25.556;2023-07-31T13:12:33;18.15;;;13.43;;
11911;SDS011;6016;41.928;25.556;2023-07-31T13:15:00;8.93;;;7.60;;
11911;SDS011;6016;41.928;25.556;2023-07-31T13:17:27;8.77;;;7.40;;
11911;SDS011;6016;41.928;25.556;2023-07-31T13:19:54;9.68;;;7.72;;
11911;SDS011;6016;41.928;25.556;2023-07-31T13:22:20;10.25;;;7.95;;
11911;SDS011;6016;41.928;25.556;2023-07-31T13:24:47;9.70;;;7.63;;
11911;SDS011;6016;41.928;25.556;2023-07-31T13:27:15;8.57;;;7.65;;
11911;SDS011;6016;41.928;25.556;2023-07-31T13:29:44;8.38;;;7.45;;
11911;SDS011;6016;41.928;25.556;2023-07-31T13:32:11;8.80;;;7.28;;
11911;SDS011;6016;41.928;25.556;2023-07-31T13:34:38;8.50;;;7.30;;
11911;SDS011;6016;41.928;25.556;2023-07-31T13:37:05;9.00;;;7.40;;
11911;SDS011;6016;41.928;25.556;2023-07-31T13:39:32;10.07;;;8.25;;
11911;SDS011;6016;41.928;25.556;2023-07-31T13:41:59;8.02;;;7.05;;
11911;SDS011;6016;41.928;25.556;2023-07-31T13:44:27;8.15;;;7.13;;
11911;SDS011;6016;41.928;25.556;2023-07-31T13:46:54;8.48;;;7.68;;
11911;SDS011;6016;41.928;25.556;2023-07-31T13:49:20;8.40;;;7.43;;
11911;SDS011;6016;41.928;25.556;2023-07-31T13:51:48;8.82;;;7.70;;
11911;SDS011;6016;41.928;25.556;2023-07-31T13:54:15;8.70;;;7.55;;
11911;SDS011;6016;41.928;25.556;2023-07-31T13:56:42;10.70;;;7.88;;
11911;SDS011;6016;41.928;25.556;2023-07-31T13:59:09;8.45;;;7.50;;
11911;SDS011;6016;41.928;25.556;2023-07-31T14:01:37;9.93;;;7.60;;
11911;SDS011;6016;41.928;25.556;2023-07-31T14:04:04;10.68;;;8.98;;
11911;SDS011;6016;41.928;25.556;2023-07-31T14:06:31;13.00;;;10.20;;
11911;SDS011;6016;41.928;25.556;2023-07-31T14:08:58;8.70;;;7.80;;
11911;SDS011;6016;41.928;25.556;2023-07-31T14:11:24;10.20;;;8.38;;
11911;SDS011;6016;41.928;25.556;2023-07-31T14:13:52;9.23;;;7.50;;
11911;SDS011;6016;41.928;25.556;2023-07-31T14:16:18;7.95;;;7.15;;
11911;SDS011;6016;41.928;25.556;2023-07-31T14:18:47;8.98;;;7.18;;
11911;SDS011;6016;41.928;25.556;2023-07-31T14:21:13;9.15;;;7.53;;
11911;SDS011;6016;41.928;25.556;2023-07-31T14:23:40;9.27;;;7.18;;
11911;SDS011;6016;41.928;25.556;2023-07-31T14:26:07;7.57;;;6.70;;
11911;SDS011;6016;41.928;25.556;2023-07-31T14:28:34;7.15;;;6.40;;
11911;SDS011;6016;41.928;25.556;2023-07-31T14:31:01;8.00;;;7.20;;
11911;SDS011;6016;41.928;25.556;2023-07-31T14:33:28;7.68;;;6.88;;
11911;SDS011;6016;41.928;25.556;2023-07-31T14:35:56;8.05;;;7.25;;
11911;SDS011;6016;41.928;25.556;2023-07-31T14:38:23;9.15;;;7.13;;
11911;SDS011;6016;41.928;25.556;2023-07-31T14:40:50;9.07;;;7.07;;
11911;SDS011;6016;41.928;25.556;2023-07-31T14:43:17;8.48;;;7.53;;
11911;SDS011;6016;41.928;25.556;2023-07-31T14:45:44;9.20;;;6.57;;
11911;SDS011;6016;41.928;25.556;2023-07-31T14:48:12;9.40;;;7.22;;
11911;SDS011;6016;41.928;25.556;2023-07-31T14:50:39;7.78;;;6.97;;
11911;SDS011;6016;41.928;25.556;2023-07-31T14:53:07;7.40;;;6.60;;